Time;durP1;ratioP1;P1;durP2;ratioP2;P2;SDS_P1;SDS_P2;PMS_P1;PMS_P2;Temp;Humidity;BMP_temperature;BMP_pressure;BME280_temperature;BME280_humidity;BME280_pressure;Samples;Min_cycle;Max_cycle;Signal;HPM_P1;HPM_P2
2024/01/27 00:00:28;;;;;;;0.50;0.50;;;4.70;99.90;;;;;;4955415;28;20207;-85
2024/01/27 00:02:56;;;;;;;3.33;2.08;;;4.70;99.90;;;;;;4978133;28;20266;-87
2024/01/27 00:05:22;;;;;;;0.60;0.60;;;4.60;99.90;;;;;;4970477;28;20301;-81
2024/01/27 00:07:54;;;;;;;0.50;0.50;;;4.60;99.90;;;;;;4967282;28;20216;-83
2024/01/27 00:10:21;;;;;;;0.50;0.50;;;4.60;99.90;;;;;;4972340;28;20434;-86
2024/01/27 00:12:48;;;;;;;4.82;0.90;;;4.70;99.90;;;;;;4953472;29;20274;-83
2024/01/27 00:15:15;;;;;;;0.50;0.50;;;4.80;99.90;;;;;;4967457;28;20215;-82
2024/01/27 00:17:42;;;;;;;0.50;0.50;;;4.80;99.90;;;;;;4983845;28;20278;-80
2024/01/27 00:20:09;;;;;;;0.50;0.50;;;4.70;99.90;;;;;;4966489;28;20271;-86
2024/01/27 00:22:36;;;;;;;0.50;0.50;;;4.80;99.90;;;;;;4978611;28;20207;-81
2024/01/27 00:25:04;;;;;;;0.93;0.93;;;4.80;99.90;;;;;;4978463;28;20242;-84
2024/01/27 00:27:32;;;;;;;0.60;0.60;;;4.80;99.90;;;;;;4971357;28;20224;-81
2024/01/27 00:30:00;;;;;;;1.77;1.67;;;4.90;99.90;;;;;;4965735;28;20542;-82
2024/01/27 00:32:27;;;;;;;1.17;1.13;;;4.80;99.90;;;;;;4973052;28;20202;-84
2024/01/27 00:34:54;;;;;;;1.25;1.25;;;4.80;99.90;;;;;;4974665;28;20213;-86
2024/01/27 00:37:21;;;;;;;4.97;0.93;;;4.90;99.90;;;;;;4967007;28;20228;-86
2024/01/27 00:39:49;;;;;;;0.60;0.60;;;4.80;99.90;;;;;;4977489;28;20274;-85
2024/01/27 00:42:23;;;;;;;1.17;1.13;;;4.80;99.90;;;;;;4965102;28;20207;-80
2024/01/27 00:44:51;;;;;;;0.93;0.93;;;4.80;99.90;;;;;;4971733;28;20411;-82
2024/01/27 00:47:19;;;;;;;2.45;2.25;;;4.80;99.90;;;;;;4974046;28;20237;-88
2024/01/27 00:49:46;;;;;;;0.40;0.40;;;4.80;99.90;;;;;;4982892;28;20210;-80
2024/01/27 00:52:13;;;;;;;0.60;0.60;;;4.80;99.90;;;;;;4994228;28;20230;-81
2024/01/27 00:54:40;;;;;;;0.60;0.60;;;5.00;99.90;;;;;;4990477;28;20221;-80
2024/01/27 00:57:07;;;;;;;1.20;1.13;;;4.80;99.90;;;;;;4986622;28;20203;-80
2024/01/27 00:59:36;;;;;;;2.55;1.67;;;4.80;99.90;;;;;;4982655;28;20226;-83
2024/01/27 01:02:03;;;;;;;0.47;0.47;;;4.80;99.90;;;;;;4981601;28;20227;-82
2024/01/27 01:04:30;;;;;;;0.50;0.50;;;4.90;99.90;;;;;;4986123;28;20287;-80
2024/01/27 01:06:57;;;;;;;0.80;0.80;;;4.90;99.90;;;;;;4971204;28;20228;-84
2024/01/27 01:09:25;;;;;;;0.88;0.88;;;4.70;99.90;;;;;;4973909;28;20266;-84
2024/01/27 01:11:52;;;;;;;2.35;1.77;;;4.70;99.90;;;;;;4974100;28;20202;-85
2024/01/27 01:14:19;;;;;;;3.33;2.30;;;4.70;99.90;;;;;;4983694;28;20234;-84
2024/01/27 01:16:46;;;;;;;1.75;1.02;;;4.50;99.90;;;;;;4988099;28;20234;-83
2024/01/27 01:19:13;;;;;;;0.50;0.50;;;4.40;99.90;;;;;;4954246;28;20219;-83
2024/01/27 01:21:40;;;;;;;0.50;0.50;;;4.30;99.90;;;;;;4984273;28;20395;-83
2024/01/27 01:24:07;;;;;;;0.40;0.40;;;4.50;99.90;;;;;;4974471;28;20324;-80
2024/01/27 01:26:34;;;;;;;2.95;2.25;;;4.60;99.90;;;;;;4974426;28;20222;-81
2024/01/27 01:29:03;;;;;;;0.50;0.50;;;4.60;99.90;;;;;;4973255;28;20211;-81
2024/01/27 01:31:30;;;;;;;0.50;0.50;;;4.70;99.90;;;;;;4962039;29;20199;-82
2024/01/27 01:33:56;;;;;;;41.92;2.05;;;4.60;99.90;;;;;;4970827;28;20244;-77
2024/01/27 01:36:24;;;;;;;1.42;1.38;;;4.60;99.90;;;;;;4980205;28;20208;-81
2024/01/27 01:38:51;;;;;;;4.78;1.80;;;4.50;99.90;;;;;;4961040;28;20269;-80
2024/01/27 01:41:18;;;;;;;0.80;0.80;;;4.60;99.90;;;;;;4984883;28;20430;-83
2024/01/27 01:43:45;;;;;;;1.35;1.25;;;4.40;99.90;;;;;;4986256;28;20251;-78
2024/01/27 01:46:12;;;;;;;1.23;1.23;;;4.40;99.90;;;;;;4965983;28;20207;-81
2024/01/27 01:48:39;;;;;;;0.50;0.50;;;4.50;99.90;;;;;;4990763;28;20228;-80
2024/01/27 01:51:06;;;;;;;0.40;0.40;;;4.40;99.90;;;;;;4999975;28;20203;-80
2024/01/27 01:53:34;;;;;;;0.82;0.82;;;4.40;99.90;;;;;;4999128;28;20202;-80
2024/01/27 01:56:02;;;;;;;1.15;1.05;;;4.50;99.90;;;;;;4979625;28;20406;-80
2024/01/27 01:58:34;;;;;;;2.83;2.42;;;4.50;99.90;;;;;;4980380;28;20203;-83
2024/01/27 02:01:01;;;;;;;3.95;1.70;;;4.30;99.90;;;;;;4988744;28;20230;-81
2024/01/27 02:03:28;;;;;;;10.52;2.15;;;4.30;99.90;;;;;;4990816;28;20198;-85
2024/01/27 02:05:56;;;;;;;0.70;0.70;;;4.20;99.90;;;;;;4967944;28;20237;-79
2024/01/27 02:08:23;;;;;;;2.08;1.98;;;4.20;99.90;;;;;;4965610;28;20218;-80
2024/01/27 02:10:50;;;;;;;6.15;1.58;;;4.20;99.90;;;;;;4985050;28;20203;-82
2024/01/27 02:13:19;;;;;;;0.40;0.40;;;4.10;99.90;;;;;;4981249;28;20193;-81
2024/01/27 02:15:48;;;;;;;1.52;1.42;;;4.10;99.90;;;;;;4988198;28;20199;-80
2024/01/27 02:18:15;;;;;;;0.50;0.50;;;3.90;99.90;;;;;;4987856;28;20206;-79
2024/01/27 02:20:43;;;;;;;1.70;1.63;;;3.90;99.90;;;;;;4977955;28;20221;-81
2024/01/27 02:23:10;;;;;;;0.50;0.50;;;3.90;99.90;;;;;;4969271;28;20202;-82
2024/01/27 02:25:36;;;;;;;1.15;0.90;;;3.80;99.90;;;;;;4978286;28;20263;-80
2024/01/27 02:28:04;;;;;;;0.70;0.70;;;3.80;99.90;;;;;;4984557;28;20558;-84
2024/01/27 02:30:31;;;;;;;0.52;0.52;;;3.90;99.90;;;;;;5001041;28;20218;-85
2024/01/27 02:32:58;;;;;;;0.70;0.70;;;3.90;99.90;;;;;;5001084;28;20208;-81
2024/01/27 02:35:26;;;;;;;0.50;0.50;;;3.90;99.90;;;;;;4959151;28;20214;-78
2024/01/27 02:37:53;;;;;;;0.40;0.40;;;3.90;99.90;;;;;;4962651;28;20245;-81
2024/01/27 02:40:22;;;;;;;2.97;2.20;;;3.80;99.90;;;;;;4988681;28;20187;-78
2024/01/27 02:42:49;;;;;;;0.50;0.50;;;4.00;99.90;;;;;;4994855;28;20218;-79
2024/01/27 02:45:16;;;;;;;1.08;1.08;;;4.00;99.90;;;;;;4986329;28;20209;-85
2024/01/27 02:47:43;;;;;;;0.50;0.50;;;4.00;99.90;;;;;;4979454;28;20261;-82
2024/01/27 02:50:11;;;;;;;0.50;0.50;;;4.00;99.90;;;;;;4955907;28;20228;-81
2024/01/27 02:52:38;;;;;;;0.50;0.50;;;4.00;99.90;;;;;;4975415;28;20282;-80
2024/01/27 02:55:05;;;;;;;0.65;0.65;;;4.10;99.90;;;;;;4974297;28;20464;-87
2024/01/27 02:57:32;;;;;;;0.50;0.50;;;4.10;99.90;;;;;;4983498;28;20551;-83
2024/01/27 02:59:59;;;;;;;0.60;0.60;;;4.10;99.90;;;;;;4969222;28;20230;-79
2024/01/27 03:02:26;;;;;;;0.85;0.82;;;4.10;99.90;;;;;;4981425;28;20200;-82
2024/01/27 03:04:53;;;;;;;0.73;0.73;;;4.20;99.90;;;;;;4973649;28;20247;-86
2024/01/27 03:07:20;;;;;;;0.50;0.50;;;4.20;99.90;;;;;;4956886;28;20199;-81
2024/01/27 03:09:47;;;;;;;0.50;0.50;;;4.40;99.90;;;;;;4978695;28;20266;-79
2024/01/27 03:12:15;;;;;;;0.50;0.50;;;4.30;99.90;;;;;;4978724;28;20238;-85
2024/01/27 03:14:42;;;;;;;0.50;0.50;;;4.30;99.90;;;;;;4967325;28;20196;-83
2024/01/27 03:17:09;;;;;;;0.50;0.50;;;4.30;99.90;;;;;;4961017;28;20199;-83
2024/01/27 03:19:36;;;;;;;0.40;0.40;;;4.20;99.90;;;;;;4975298;28;20198;-83
2024/01/27 03:22:04;;;;;;;0.63;0.63;;;4.20;99.90;;;;;;4977926;28;20207;-82
2024/01/27 03:24:30;;;;;;;0.50;0.50;;;4.30;99.90;;;;;;4973762;28;20214;-83
2024/01/27 03:26:57;;;;;;;0.50;0.50;;;4.30;99.90;;;;;;4977853;28;20203;-84
2024/01/27 03:29:25;;;;;;;0.50;0.50;;;4.30;99.90;;;;;;4977007;28;20222;-80
2024/01/27 03:31:51;;;;;;;1.45;1.35;;;4.30;99.90;;;;;;4958673;28;20227;-79
2024/01/27 03:34:20;;;;;;;0.50;0.50;;;4.30;99.90;;;;;;4968370;28;20242;-84
2024/01/27 03:36:50;;;;;;;1.42;1.15;;;4.30;99.90;;;;;;4979518;28;20241;-80
2024/01/27 03:39:17;;;;;;;0.50;0.50;;;4.30;99.90;;;;;;4951508;28;20206;-83
2024/01/27 03:41:44;;;;;;;0.50;0.50;;;4.30;99.90;;;;;;4973642;28;20200;-85
2024/01/27 03:44:11;;;;;;;0.70;0.70;;;4.20;99.90;;;;;;4967984;28;20262;-82
2024/01/27 03:46:40;;;;;;;1.30;1.30;;;4.30;99.90;;;;;;4976957;28;20209;-83
2024/01/27 03:49:07;;;;;;;2.45;2.25;;;4.30;99.90;;;;;;4965027;28;20274;-84
2024/01/27 03:51:34;;;;;;;3.63;1.50;;;4.20;99.90;;;;;;4958774;28;20203;-83
2024/01/27 03:54:01;;;;;;;0.50;0.50;;;4.30;99.90;;;;;;4956188;28;20380;-83
2024/01/27 03:56:28;;;;;;;0.40;0.40;;;4.20;99.90;;;;;;4975803;28;20210;-86
2024/01/27 03:58:55;;;;;;;0.60;0.60;;;4.20;99.90;;;;;;4981647;28;20269;-84
2024/01/27 04:01:22;;;;;;;0.50;0.50;;;4.10;99.90;;;;;;4953503;28;20230;-80
2024/01/27 04:03:49;;;;;;;4.97;4.53;;;4.20;99.90;;;;;;4969034;28;20242;-83
2024/01/27 04:06:16;;;;;;;14.80;3.30;;;4.20;99.90;;;;;;4976627;28;20557;-82
2024/01/27 04:08:44;;;;;;;0.40;0.40;;;4.10;99.90;;;;;;4965982;28;20223;-80
2024/01/27 04:11:21;;;;;;;1.05;1.05;;;4.30;99.90;;;;;;4971250;28;20207;-82
2024/01/27 04:13:50;;;;;;;0.50;0.50;;;4.20;99.90;;;;;;4978221;28;20194;-82
2024/01/27 04:16:17;;;;;;;0.40;0.40;;;4.30;99.90;;;;;;4971135;28;20270;-84
2024/01/27 04:18:44;;;;;;;0.98;0.98;;;4.30;99.90;;;;;;4971345;28;20221;-83
2024/01/27 04:21:11;;;;;;;0.70;0.70;;;4.20;99.90;;;;;;4975810;28;20196;-82
2024/01/27 04:23:38;;;;;;;0.77;0.77;;;4.10;99.90;;;;;;4975079;28;20241;-87
2024/01/27 04:26:06;;;;;;;0.50;0.50;;;4.00;99.90;;;;;;4973142;28;20266;-79
2024/01/27 04:28:33;;;;;;;0.50;0.50;;;4.10;99.90;;;;;;4953258;28;20223;-81
2024/01/27 04:31:00;;;;;;;0.50;0.50;;;4.00;99.90;;;;;;4973646;28;20199;-81
2024/01/27 04:33:27;;;;;;;0.50;0.50;;;4.00;99.90;;;;;;4973042;28;20204;-84
2024/01/27 04:35:57;;;;;;;0.70;0.70;;;3.90;99.90;;;;;;4972113;28;20214;-80
2024/01/27 04:38:27;;;;;;;1.90;1.05;;;3.80;99.90;;;;;;4981560;28;20199;-83
2024/01/27 04:40:55;;;;;;;0.80;0.80;;;3.90;99.90;;;;;;4983815;28;20314;-80
2024/01/27 04:43:22;;;;;;;4.68;1.75;;;3.90;99.90;;;;;;4971451;28;20265;-81
2024/01/27 04:45:52;;;;;;;1.80;1.70;;;3.80;99.90;;;;;;4986988;28;20459;-83
2024/01/27 04:48:19;;;;;;;0.50;0.50;;;3.80;99.90;;;;;;4971483;28;20262;-80
2024/01/27 04:50:50;;;;;;;0.50;0.50;;;3.80;99.90;;;;;;4972502;28;20372;-85
2024/01/27 04:53:18;;;;;;;1.58;1.48;;;3.80;99.90;;;;;;4971730;28;20207;-82
2024/01/27 04:55:46;;;;;;;0.60;0.60;;;3.80;99.90;;;;;;4982926;28;20223;-82
2024/01/27 04:58:14;;;;;;;0.50;0.50;;;3.80;99.90;;;;;;4968239;28;20200;-84
2024/01/27 05:00:41;;;;;;;0.50;0.50;;;3.80;99.90;;;;;;4970934;29;20224;-82
2024/01/27 05:03:13;;;;;;;1.73;1.63;;;3.80;99.90;;;;;;4979290;28;20229;-83
2024/01/27 05:05:42;;;;;;;0.50;0.50;;;3.70;99.90;;;;;;4978302;28;20206;-81
2024/01/27 05:08:10;;;;;;;1.45;1.45;;;3.80;99.90;;;;;;4955993;28;20314;-82
2024/01/27 05:10:37;;;;;;;0.50;0.50;;;3.90;99.90;;;;;;4980377;28;20278;-81
2024/01/27 05:13:04;;;;;;;1.67;1.33;;;3.90;99.90;;;;;;4969351;28;20462;-82
2024/01/27 05:15:31;;;;;;;2.50;2.40;;;3.80;99.90;;;;;;4971651;28;20234;-81
2024/01/27 05:17:58;;;;;;;0.55;0.55;;;3.90;99.90;;;;;;4971683;28;20501;-81
2024/01/27 05:20:25;;;;;;;0.50;0.50;;;3.90;99.90;;;;;;4978255;28;20448;-82
2024/01/27 05:22:52;;;;;;;0.50;0.50;;;3.90;99.90;;;;;;4986591;28;20199;-84
2024/01/27 05:25:19;;;;;;;0.50;0.50;;;3.80;99.90;;;;;;4981938;28;20267;-83
2024/01/27 05:27:46;;;;;;;0.50;0.50;;;3.90;99.90;;;;;;4977114;28;20203;-80
2024/01/27 05:30:15;;;;;;;0.98;0.98;;;4.00;99.90;;;;;;4980667;28;20199;-83
2024/01/27 05:32:42;;;;;;;0.70;0.70;;;3.70;99.90;;;;;;4956753;28;20203;-86
2024/01/27 05:35:10;;;;;;;34.90;2.45;;;3.80;99.90;;;;;;4984572;28;20237;-82
2024/01/27 05:37:39;;;;;;;0.50;0.50;;;3.70;99.90;;;;;;4977960;28;20199;-81
2024/01/27 05:40:08;;;;;;;0.70;0.70;;;3.80;99.90;;;;;;4977458;28;20270;-81
2024/01/27 05:42:35;;;;;;;2.88;1.63;;;3.70;99.90;;;;;;4972186;28;20223;-81
2024/01/27 05:45:02;;;;;;;0.50;0.50;;;3.60;99.90;;;;;;4994460;28;20203;-82
2024/01/27 05:47:29;;;;;;;0.45;0.45;;;3.60;99.90;;;;;;5012766;28;20175;-83
2024/01/27 05:49:59;;;;;;;0.50;0.50;;;3.70;99.90;;;;;;4993939;28;20274;-84
2024/01/27 05:52:26;;;;;;;0.50;0.50;;;3.60;99.90;;;;;;4985787;28;20230;-83
2024/01/27 05:54:53;;;;;;;1.33;1.33;;;3.50;99.90;;;;;;4976763;28;20203;-84
2024/01/27 05:57:20;;;;;;;1.75;1.65;;;3.40;99.90;;;;;;4979035;28;20203;-83
2024/01/27 05:59:47;;;;;;;0.70;0.70;;;3.30;99.90;;;;;;4988702;28;20199;-81
2024/01/27 06:02:17;;;;;;;2.25;1.50;;;3.40;99.90;;;;;;4970400;28;20215;-82
2024/01/27 06:04:45;;;;;;;0.50;0.50;;;3.40;99.90;;;;;;4980710;28;20222;-85
2024/01/27 06:07:12;;;;;;;0.50;0.50;;;3.20;99.90;;;;;;4971361;28;20206;-82
2024/01/27 06:09:39;;;;;;;0.70;0.70;;;3.30;99.90;;;;;;4956596;28;20231;-84
2024/01/27 06:12:06;;;;;;;0.50;0.50;;;3.30;99.90;;;;;;4975701;28;20214;-83
2024/01/27 06:14:34;;;;;;;0.60;0.60;;;3.30;99.90;;;;;;4980382;28;20210;-81
2024/01/27 06:17:04;;;;;;;0.95;0.95;;;3.30;99.90;;;;;;4956552;28;20270;-84
2024/01/27 06:19:31;;;;;;;2.63;2.47;;;3.30;99.90;;;;;;4983784;28;20238;-83
2024/01/27 06:21:58;;;;;;;0.82;0.82;;;3.40;99.90;;;;;;4980018;28;20207;-83
2024/01/27 06:24:30;;;;;;;0.50;0.50;;;3.40;99.90;;;;;;4958713;28;20195;-84
2024/01/27 06:26:57;;;;;;;0.50;0.50;;;3.40;99.90;;;;;;4957284;28;20275;-82
2024/01/27 06:29:26;;;;;;;0.50;0.50;;;3.40;99.90;;;;;;4971028;28;20227;-84
2024/01/27 06:31:54;;;;;;;0.70;0.70;;;3.30;99.90;;;;;;4976711;28;20259;-84
2024/01/27 06:34:21;;;;;;;1.52;1.08;;;3.40;99.90;;;;;;4979264;28;20207;-83
2024/01/27 06:36:48;;;;;;;6.07;2.45;;;3.50;99.90;;;;;;4991751;28;20202;-85
2024/01/27 06:39:15;;;;;;;0.73;0.73;;;3.50;99.90;;;;;;4971302;28;20265;-84
2024/01/27 06:41:42;;;;;;;2.00;1.90;;;3.60;99.90;;;;;;4982361;28;20207;-82
2024/01/27 06:44:09;;;;;;;0.70;0.70;;;3.60;99.90;;;;;;4962619;28;20214;-84
2024/01/27 06:46:36;;;;;;;0.93;0.93;;;3.50;99.90;;;;;;4978718;28;20262;-83
2024/01/27 06:49:03;;;;;;;1.75;0.63;;;3.50;99.90;;;;;;4946589;29;20282;-81
2024/01/27 06:51:30;;;;;;;0.50;0.50;;;3.60;99.90;;;;;;4986273;28;20220;-80
2024/01/27 06:53:57;;;;;;;0.50;0.50;;;3.60;99.90;;;;;;4990145;28;20204;-82
2024/01/27 06:56:25;;;;;;;1.02;1.02;;;3.60;99.90;;;;;;4976962;28;20248;-84
2024/01/27 06:58:52;;;;;;;0.77;0.77;;;3.60;99.90;;;;;;4972010;28;20229;-80
2024/01/27 07:01:21;;;;;;;1.02;1.02;;;3.60;99.90;;;;;;4965204;28;20270;-83
2024/01/27 07:03:48;;;;;;;1.13;1.02;;;3.60;99.90;;;;;;4975271;28;20206;-84
2024/01/27 07:06:15;;;;;;;2.65;2.45;;;3.60;99.90;;;;;;4976890;28;20266;-81
2024/01/27 07:08:42;;;;;;;0.43;0.43;;;3.70;99.90;;;;;;4974412;28;20290;-84
2024/01/27 07:11:09;;;;;;;0.60;0.60;;;3.60;99.90;;;;;;4982336;28;20279;-84
2024/01/27 07:13:36;;;;;;;0.95;0.95;;;3.70;99.90;;;;;;4964409;28;20499;-82
2024/01/27 07:16:04;;;;;;;1.83;1.73;;;3.80;99.90;;;;;;4959453;28;20219;-81
2024/01/27 07:18:31;;;;;;;0.50;0.50;;;3.80;99.90;;;;;;4973257;28;20230;-83
2024/01/27 07:21:01;;;;;;;0.93;0.93;;;3.80;99.90;;;;;;4976852;28;20194;-83
2024/01/27 07:23:28;;;;;;;2.75;1.45;;;3.80;99.90;;;;;;4981535;28;20191;-84
2024/01/27 07:25:55;;;;;;;1.48;1.38;;;3.80;99.90;;;;;;4982738;28;20235;-81
2024/01/27 07:28:22;;;;;;;7.03;1.50;;;3.80;99.90;;;;;;4975200;28;20205;-82
2024/01/27 07:30:49;;;;;;;0.40;0.40;;;3.80;99.90;;;;;;4987858;28;20198;-86
2024/01/27 07:33:16;;;;;;;0.50;0.50;;;4.00;99.90;;;;;;4961755;28;20208;-84
2024/01/27 07:35:43;;;;;;;0.50;0.50;;;3.90;99.90;;;;;;4990925;28;20202;-81
2024/01/27 07:38:10;;;;;;;0.65;0.65;;;3.90;99.90;;;;;;4969415;28;20426;-82
2024/01/27 07:40:37;;;;;;;0.50;0.50;;;3.90;99.90;;;;;;4972749;28;20198;-84
2024/01/27 07:43:04;;;;;;;0.50;0.50;;;3.90;99.90;;;;;;4970060;28;20199;-80
2024/01/27 07:45:31;;;;;;;0.70;0.70;;;3.90;99.90;;;;;;4972993;28;20201;-83
2024/01/27 07:47:58;;;;;;;0.60;0.60;;;3.90;99.90;;;;;;4973601;28;20261;-81
2024/01/27 07:50:28;;;;;;;0.50;0.50;;;3.90;99.90;;;;;;4964907;28;20238;-78
2024/01/27 07:52:55;;;;;;;0.55;0.55;;;4.00;99.90;;;;;;4997116;28;20245;-82
2024/01/27 07:55:21;;;;;;;0.50;0.50;;;4.00;99.90;;;;;;4999400;28;20275;-84
2024/01/27 07:57:49;;;;;;;1.92;1.75;;;4.00;99.90;;;;;;4985430;28;20235;-82
2024/01/27 08:00:17;;;;;;;0.60;0.60;;;4.00;99.90;;;;;;4974839;28;20508;-83
2024/01/27 08:02:44;;;;;;;0.50;0.50;;;4.00;99.90;;;;;;4970498;28;20207;-79
2024/01/27 08:05:11;;;;;;;0.50;0.50;;;4.10;99.90;;;;;;4965397;28;20230;-85
2024/01/27 08:07:38;;;;;;;1.40;1.33;;;4.00;99.90;;;;;;4958771;29;20227;-84
2024/01/27 08:10:05;;;;;;;1.90;1.80;;;3.90;99.90;;;;;;4955853;28;20258;-84
2024/01/27 08:12:32;;;;;;;0.50;0.50;;;4.10;99.90;;;;;;4950435;28;20558;-82
2024/01/27 08:15:00;;;;;;;0.50;0.50;;;4.10;99.90;;;;;;4975626;28;20496;-83
2024/01/27 08:17:27;;;;;;;27.90;3.53;;;4.10;99.90;;;;;;4996209;28;20218;-83
2024/01/27 08:19:53;;;;;;;0.60;0.60;;;4.20;99.90;;;;;;4995099;28;20203;-80
2024/01/27 08:22:21;;;;;;;0.47;0.47;;;4.20;99.90;;;;;;4986938;28;20210;-80
2024/01/27 08:24:48;;;;;;;0.50;0.50;;;4.20;99.90;;;;;;4985182;28;20214;-81
2024/01/27 08:27:15;;;;;;;0.50;0.50;;;4.30;99.90;;;;;;4976568;28;20446;-85
2024/01/27 08:29:42;;;;;;;0.50;0.50;;;4.30;99.90;;;;;;4975538;28;20421;-81
2024/01/27 08:32:09;;;;;;;0.50;0.50;;;4.40;99.90;;;;;;4963826;28;20207;-82
2024/01/27 08:34:36;;;;;;;0.60;0.60;;;4.40;99.90;;;;;;4987513;28;20230;-79
2024/01/27 08:37:20;;;;;;;1.13;1.13;;;4.40;99.90;;;;;;4988224;28;20200;-79
2024/01/27 08:39:47;;;;;;;0.50;0.50;;;4.50;99.90;;;;;;4991658;28;20203;-82
2024/01/27 08:42:14;;;;;;;0.80;0.80;;;4.50;99.90;;;;;;4991919;28;20206;-83
2024/01/27 08:44:41;;;;;;;0.50;0.50;;;4.50;99.90;;;;;;4969294;28;20250;-80
2024/01/27 08:47:10;;;;;;;0.50;0.50;;;4.50;99.90;;;;;;4985390;28;20218;-81
2024/01/27 08:49:37;;;;;;;0.73;0.73;;;4.40;99.90;;;;;;4980495;28;20293;-81
2024/01/27 08:52:04;;;;;;;1.20;1.20;;;4.50;99.90;;;;;;4965486;28;20199;-81
2024/01/27 08:54:31;;;;;;;0.50;0.50;;;4.50;99.90;;;;;;4978616;28;20206;-80
2024/01/27 08:56:58;;;;;;;0.60;0.60;;;4.50;99.90;;;;;;4963903;28;20202;-82
2024/01/27 08:59:25;;;;;;;1.20;1.15;;;4.40;99.90;;;;;;4975565;28;20207;-79
2024/01/27 09:01:52;;;;;;;0.60;0.60;;;4.50;99.90;;;;;;4987194;28;20498;-80
2024/01/27 09:04:19;;;;;;;0.50;0.50;;;4.60;99.90;;;;;;4981373;28;20241;-79
2024/01/27 09:06:46;;;;;;;0.47;0.47;;;4.50;99.90;;;;;;4967715;28;20210;-81
2024/01/27 09:09:14;;;;;;;0.85;0.85;;;4.60;99.90;;;;;;4974605;28;20238;-80
2024/01/27 09:11:41;;;;;;;0.80;0.80;;;4.60;99.90;;;;;;4975992;28;20211;-81
2024/01/27 09:14:08;;;;;;;0.50;0.50;;;4.70;99.90;;;;;;4977934;28;20198;-81
2024/01/27 09:16:35;;;;;;;0.60;0.60;;;4.70;99.90;;;;;;4975104;28;20238;-82
2024/01/27 09:19:02;;;;;;;0.80;0.80;;;4.80;99.90;;;;;;4960892;28;20234;-81
2024/01/27 09:21:30;;;;;;;3.63;3.42;;;4.80;99.90;;;;;;4978462;28;20207;-79
2024/01/27 09:23:58;;;;;;;0.60;0.60;;;4.70;99.90;;;;;;4978010;28;20213;-78
2024/01/27 09:26:25;;;;;;;0.85;0.85;;;4.70;99.90;;;;;;4978531;28;20210;-79
2024/01/27 09:28:54;;;;;;;0.50;0.50;;;4.70;99.90;;;;;;4973053;28;20275;-80
2024/01/27 09:31:23;;;;;;;0.60;0.60;;;4.80;99.90;;;;;;4984896;28;20203;-82
2024/01/27 09:33:52;;;;;;;0.60;0.60;;;4.80;99.90;;;;;;4960451;28;20199;-78
2024/01/27 09:36:20;;;;;;;0.60;0.60;;;4.80;99.90;;;;;;4941908;28;20210;-80
2024/01/27 09:38:47;;;;;;;2.15;2.05;;;4.80;99.90;;;;;;4978456;28;20222;-81
2024/01/27 09:41:15;;;;;;;3.03;1.35;;;4.80;99.90;;;;;;4977702;28;20264;-81
2024/01/27 09:43:47;;;;;;;0.60;0.60;;;4.90;99.90;;;;;;4982993;28;20196;-78
2024/01/27 09:46:15;;;;;;;0.80;0.80;;;4.90;99.90;;;;;;4970808;28;20192;-82
2024/01/27 09:48:42;;;;;;;0.63;0.63;;;4.90;99.90;;;;;;4982635;28;20239;-80
2024/01/27 09:51:10;;;;;;;0.70;0.70;;;4.90;99.90;;;;;;4964025;28;20234;-80
2024/01/27 09:53:38;;;;;;;0.70;0.70;;;4.90;99.90;;;;;;4993500;28;20213;-83
2024/01/27 09:56:06;;;;;;;0.60;0.60;;;5.00;99.90;;;;;;4995349;28;20202;-82
2024/01/27 09:58:34;;;;;;;0.57;0.57;;;5.00;99.90;;;;;;4984549;28;20227;-81
2024/01/27 10:01:02;;;;;;;0.60;0.60;;;5.00;99.90;;;;;;4992886;28;20266;-78
2024/01/27 10:03:30;;;;;;;0.50;0.50;;;5.10;99.90;;;;;;4960003;28;20253;-78
2024/01/27 10:05:58;;;;;;;0.60;0.60;;;5.10;99.90;;;;;;4973074;28;20206;-82
2024/01/27 10:08:25;;;;;;;0.70;0.70;;;5.10;99.90;;;;;;4989372;28;20282;-82
2024/01/27 10:10:56;;;;;;;6.78;1.13;;;5.10;99.90;;;;;;4979181;28;20250;-82
2024/01/27 10:13:27;;;;;;;2.13;1.85;;;5.20;99.90;;;;;;4982604;28;20254;-82
2024/01/27 10:16:08;;;;;;;1.58;1.00;;;5.10;99.90;;;;;;4954433;28;20236;-80
2024/01/27 10:18:35;;;;;;;0.50;0.50;;;5.10;99.90;;;;;;4980650;28;20271;-83
2024/01/27 10:21:13;;;;;;;0.60;0.60;;;5.20;99.90;;;;;;4984845;28;20205;-81
2024/01/27 10:23:40;;;;;;;0.50;0.50;;;5.30;99.90;;;;;;4981815;28;20494;-79
2024/01/27 10:26:11;;;;;;;0.50;0.50;;;5.60;99.90;;;;;;4973630;28;20204;-81
2024/01/27 10:28:38;;;;;;;0.85;0.85;;;5.60;99.90;;;;;;4983349;28;20285;-79
2024/01/27 10:31:12;;;;;;;0.50;0.50;;;5.60;99.90;;;;;;4980895;28;20271;-87
2024/01/27 10:33:39;;;;;;;0.50;0.50;;;5.50;99.90;;;;;;4985863;28;20208;-85
2024/01/27 10:36:07;;;;;;;0.50;0.50;;;5.50;99.90;;;;;;4979369;28;20190;-85
2024/01/27 10:38:35;;;;;;;0.60;0.60;;;5.60;99.90;;;;;;4987627;28;20210;-84
2024/01/27 10:41:07;;;;;;;0.50;0.50;;;5.80;99.90;;;;;;4985105;28;20267;-82
2024/01/27 10:43:35;;;;;;;0.50;0.50;;;5.70;99.90;;;;;;4976978;28;20208;-84
2024/01/27 10:46:07;;;;;;;0.50;0.50;;;5.60;99.90;;;;;;4992719;28;20261;-81
2024/01/27 10:48:36;;;;;;;0.90;0.90;;;5.70;99.90;;;;;;4970345;28;20199;-82
2024/01/27 10:51:08;;;;;;;0.60;0.60;;;5.80;99.90;;;;;;4965392;28;20242;-81
2024/01/27 10:53:37;;;;;;;0.40;0.40;;;5.80;99.90;;;;;;4983747;28;20432;-82
2024/01/27 10:56:09;;;;;;;0.85;0.85;;;5.60;99.90;;;;;;4979568;28;20393;-80
2024/01/27 10:58:41;;;;;;;0.57;0.57;;;5.70;99.90;;;;;;4979631;28;20208;-82
2024/01/27 11:01:13;;;;;;;1.35;1.25;;;5.80;99.90;;;;;;4971618;28;20203;-81
2024/01/27 11:03:41;;;;;;;0.50;0.50;;;5.70;99.90;;;;;;4966065;28;20204;-80
2024/01/27 11:06:11;;;;;;;0.50;0.50;;;5.80;99.90;;;;;;4962554;28;20196;-85
2024/01/27 11:08:39;;;;;;;0.50;0.50;;;6.10;99.90;;;;;;4979216;28;20237;-83
2024/01/27 11:11:11;;;;;;;0.90;0.90;;;6.00;99.90;;;;;;4979015;28;20232;-83
2024/01/27 11:13:39;;;;;;;0.70;0.70;;;6.10;99.90;;;;;;4980604;28;20204;-84
2024/01/27 11:16:18;;;;;;;0.50;0.50;;;6.30;99.90;;;;;;4973889;28;20199;-81
2024/01/27 11:18:45;;;;;;;0.60;0.60;;;6.30;99.90;;;;;;4978094;28;21469;-82
2024/01/27 11:21:16;;;;;;;0.50;0.50;;;6.20;99.90;;;;;;4980616;28;20203;-80
2024/01/27 11:23:46;;;;;;;0.98;0.80;;;6.00;99.90;;;;;;4967501;28;20216;-82
2024/01/27 11:26:20;;;;;;;0.50;0.50;;;6.00;99.90;;;;;;4986223;28;20224;-82
2024/01/27 11:28:49;;;;;;;0.50;0.50;;;6.00;99.90;;;;;;4994413;28;20199;-82
2024/01/27 11:31:19;;;;;;;0.50;0.50;;;6.20;99.90;;;;;;4980098;28;20437;-84
2024/01/27 11:33:51;;;;;;;0.63;0.63;;;6.30;99.90;;;;;;4960354;28;20232;-83
2024/01/27 11:36:24;;;;;;;0.50;0.50;;;6.40;99.90;;;;;;4959136;28;20291;-81
2024/01/27 11:38:52;;;;;;;0.50;0.50;;;6.40;99.90;;;;;;4971148;28;20213;-82
2024/01/27 11:41:28;;;;;;;0.60;0.60;;;6.30;99.90;;;;;;4988538;28;20213;-79
2024/01/27 11:44:01;;;;;;;0.60;0.60;;;6.10;99.90;;;;;;4980038;28;20211;-85
2024/01/27 11:46:29;;;;;;;0.55;0.55;;;6.20;99.90;;;;;;4961985;28;20231;-81
2024/01/27 11:48:56;;;;;;;0.50;0.50;;;6.20;99.90;;;;;;4957111;28;20215;-82
2024/01/27 11:51:26;;;;;;;0.60;0.60;;;6.30;99.90;;;;;;4965667;28;20271;-81
2024/01/27 11:53:53;;;;;;;1.45;0.82;;;6.30;99.90;;;;;;4967615;28;20246;-82
2024/01/27 11:56:21;;;;;;;2.72;2.58;;;6.40;99.90;;;;;;4975446;28;20204;-83
2024/01/27 11:58:49;;;;;;;1.05;1.05;;;6.50;99.90;;;;;;4983485;28;20226;-80
2024/01/27 12:01:16;;;;;;;0.60;0.60;;;6.50;99.90;;;;;;4989021;28;20209;-82
2024/01/27 12:03:44;;;;;;;4.15;2.17;;;6.60;99.90;;;;;;4990519;28;20274;-83
2024/01/27 12:06:12;;;;;;;0.50;0.50;;;6.50;99.90;;;;;;4983237;28;20226;-84
2024/01/27 12:08:50;;;;;;;0.70;0.70;;;6.80;99.90;;;;;;4971494;28;20210;-80
2024/01/27 12:11:17;;;;;;;0.50;0.50;;;6.80;99.90;;;;;;4981656;28;20244;-77
2024/01/27 12:13:51;;;;;;;0.50;0.50;;;6.80;99.90;;;;;;4956959;28;20231;-83
2024/01/27 12:16:18;;;;;;;0.95;0.95;;;6.70;99.90;;;;;;4954247;28;20238;-84
2024/01/27 12:18:46;;;;;;;0.50;0.50;;;6.70;99.90;;;;;;4978802;28;20249;-81
2024/01/27 12:21:19;;;;;;;0.50;0.50;;;6.60;99.90;;;;;;4973857;28;20213;-83
2024/01/27 12:23:53;;;;;;;0.50;0.50;;;6.60;99.90;;;;;;4976935;28;20715;-80
2024/01/27 12:26:25;;;;;;;0.50;0.50;;;6.70;99.90;;;;;;4977903;28;20551;-83
2024/01/27 12:28:55;;;;;;;0.60;0.60;;;6.70;99.90;;;;;;4982309;28;20433;-81
2024/01/27 12:31:23;;;;;;;0.50;0.50;;;6.80;99.90;;;;;;4975621;28;20454;-83
2024/01/27 12:33:58;;;;;;;0.50;0.50;;;6.80;99.90;;;;;;4976309;28;20209;-83
2024/01/27 12:36:27;;;;;;;1.15;1.15;;;6.70;99.90;;;;;;4975138;28;20209;-86
2024/01/27 12:39:00;;;;;;;27.02;1.70;;;6.80;99.90;;;;;;4974864;28;20214;-84
2024/01/27 12:41:29;;;;;;;0.50;0.50;;;6.80;99.90;;;;;;4971365;28;20415;-82
2024/01/27 12:43:56;;;;;;;0.40;0.40;;;6.70;99.90;;;;;;4974284;28;20222;-80
2024/01/27 12:46:24;;;;;;;0.57;0.57;;;6.70;99.90;;;;;;4974766;28;20211;-81
2024/01/27 12:48:51;;;;;;;1.13;1.13;;;6.60;99.90;;;;;;4979037;28;20252;-84
2024/01/27 12:51:19;;;;;;;2.67;2.38;;;6.50;99.90;;;;;;4955771;28;20228;-80
2024/01/27 12:53:47;;;;;;;0.57;0.57;;;6.70;99.90;;;;;;4977157;28;20199;-78
2024/01/27 12:56:15;;;;;;;0.82;0.82;;;6.70;99.90;;;;;;4957042;28;20233;-81
2024/01/27 12:58:42;;;;;;;0.73;0.73;;;6.70;99.90;;;;;;4974465;28;20584;-83
2024/01/27 13:01:09;;;;;;;0.50;0.50;;;6.80;99.90;;;;;;4983886;28;20211;-84